createdAt,value
2019-05-28T00:00:05.678Z,999.77
2019-05-28T00:01:05.683Z,999.69
2019-05-28T00:02:05.666Z,999.75
2019-05-28T00:03:05.646Z,999.69
2019-05-28T00:04:05.641Z,999.74
2019-05-28T00:05:05.625Z,999.72
2019-05-28T00:06:05.632Z,999.69
2019-05-28T00:07:05.632Z,999.68
2019-05-28T00:08:05.591Z,999.64
2019-05-28T00:09:05.579Z,999.63
2019-05-28T00:10:05.821Z,999.63
2019-05-28T00:11:05.557Z,999.61
2019-05-28T00:12:05.558Z,999.66
2019-05-28T00:13:05.540Z,999.58
2019-05-28T00:14:05.541Z,999.63
2019-05-28T00:15:05.513Z,999.57
2019-05-28T00:16:05.538Z,999.57
2019-05-28T00:17:05.489Z,999.66
2019-05-28T00:18:05.478Z,999.62
2019-05-28T00:19:05.463Z,999.56
2019-05-28T00:20:05.513Z,999.56
2019-05-28T00:21:05.446Z,999.52
2019-05-28T00:22:05.429Z,999.56
2019-05-28T00:23:05.424Z,999.44
2019-05-28T00:24:05.409Z,999.48
2019-05-28T00:25:05.394Z,999.45
2019-05-28T00:26:05.397Z,999.40
2019-05-28T00:27:05.372Z,999.44
2019-05-28T00:28:05.358Z,999.42
2019-05-28T00:29:05.349Z,999.43
2019-05-28T00:30:19.373Z,999.44
2019-05-28T00:31:06.333Z,999.41
2019-05-28T00:32:05.326Z,999.37
2019-05-28T00:33:05.331Z,999.38
2019-05-28T00:34:05.294Z,999.36
2019-05-28T00:35:05.278Z,999.41
2019-05-28T00:36:05.298Z,999.33
2019-05-28T00:37:05.261Z,999.40
2019-05-28T00:38:05.254Z,999.40
2019-05-28T00:39:05.236Z,999.44
2019-05-28T00:40:05.224Z,999.40
2019-05-28T00:41:05.225Z,999.40
2019-05-28T00:42:05.210Z,999.41
2019-05-28T00:43:05.194Z,999.42
2019-05-28T00:44:05.177Z,999.45
2019-05-28T00:45:05.236Z,999.38
2019-05-28T00:46:05.192Z,999.44
2019-05-28T00:47:05.149Z,999.40
2019-05-28T00:48:05.143Z,999.40
2019-05-28T00:49:05.125Z,999.39
2019-05-28T00:50:05.144Z,999.38
2019-05-28T00:51:05.111Z,999.36
2019-05-28T00:52:05.104Z,999.38
2019-05-28T00:53:05.088Z,999.41
2019-05-28T00:54:05.078Z,999.50
2019-05-28T00:55:05.066Z,999.45
2019-05-28T00:56:05.066Z,999.42
2019-05-28T00:57:05.044Z,999.37
2019-05-28T00:58:05.028Z,999.37
2019-05-28T00:59:05.018Z,999.36
2019-05-28T01:00:05.019Z,999.32
2019-05-28T01:01:05.011Z,999.33
2019-05-28T01:02:04.999Z,999.32
2019-05-28T01:03:04.980Z,999.31
2019-05-28T01:04:04.969Z,999.29
2019-05-28T01:05:04.961Z,999.30
2019-05-28T01:06:04.950Z,999.31
2019-05-28T01:07:04.941Z,999.29
2019-05-28T01:08:04.935Z,999.29
2019-05-28T01:09:04.915Z,999.30
2019-05-28T01:10:04.907Z,999.24
2019-05-28T01:11:04.902Z,999.23
2019-05-28T01:12:04.882Z,999.22
2019-05-28T01:13:04.914Z,999.23
2019-05-28T01:14:04.862Z,999.23
2019-05-28T01:15:04.852Z,999.19
2019-05-28T01:16:04.839Z,999.21
2019-05-28T01:17:04.827Z,999.14
2019-05-28T01:18:04.814Z,999.12
2019-05-28T01:19:04.814Z,999.17
2019-05-28T01:20:04.797Z,999.07
2019-05-28T01:21:04.787Z,999.21
2019-05-28T01:22:04.779Z,999.12
2019-05-28T01:23:04.767Z,999.14
2019-05-28T01:24:04.770Z,999.15
2019-05-28T01:25:04.746Z,999.15
2019-05-28T01:26:04.757Z,999.16
2019-05-28T01:27:04.722Z,999.17
2019-05-28T01:28:04.706Z,999.15
2019-05-28T01:29:04.706Z,999.22
2019-05-28T01:30:04.687Z,999.17
2019-05-28T01:31:04.676Z,999.18
2019-05-28T01:32:04.675Z,999.17
2019-05-28T01:33:04.655Z,999.20
2019-05-28T01:34:04.645Z,999.17
2019-05-28T01:35:04.642Z,999.16
2019-05-28T01:36:04.636Z,999.16
2019-05-28T01:37:04.612Z,999.18
2019-05-28T01:38:04.602Z,999.21
2019-05-28T01:39:04.590Z,999.22
2019-05-28T01:40:04.580Z,999.25
2019-05-28T01:41:04.576Z,999.27
2019-05-28T01:42:04.551Z,999.22
2019-05-28T01:43:04.550Z,999.24
2019-05-28T01:44:04.533Z,999.22
2019-05-28T01:45:04.520Z,999.24
2019-05-28T01:46:04.506Z,999.22
2019-05-28T01:47:04.509Z,999.28
2019-05-28T01:48:04.490Z,999.24
2019-05-28T01:49:04.479Z,999.32
2019-05-28T01:50:04.467Z,999.27
2019-05-28T01:51:04.458Z,999.24
2019-05-28T01:52:04.455Z,999.19
2019-05-28T01:53:04.433Z,999.23
2019-05-28T01:54:04.433Z,999.36
2019-05-28T01:55:04.438Z,999.34
2019-05-28T01:56:04.395Z,999.36
2019-05-28T01:57:04.435Z,999.34
2019-05-28T01:58:04.378Z,999.31
2019-05-28T01:59:04.372Z,999.30
2019-05-28T02:00:04.359Z,999.35
2019-05-28T02:01:12.601Z,999.27
2019-05-28T02:02:05.361Z,999.26
2019-05-28T02:03:04.324Z,999.30
2019-05-28T02:04:04.316Z,999.28
2019-05-28T02:05:04.306Z,999.27
2019-05-28T02:06:04.297Z,999.30
2019-05-28T02:07:04.274Z,999.31
2019-05-28T02:08:04.275Z,999.29
2019-05-28T02:09:04.258Z,999.28
2019-05-28T02:10:04.294Z,999.23
2019-05-28T02:11:04.381Z,999.21
2019-05-28T02:12:04.220Z,999.23
2019-05-28T02:13:04.230Z,999.23
2019-05-28T02:14:04.206Z,999.21
2019-05-28T02:15:04.193Z,999.22
2019-05-28T02:16:04.178Z,999.17
2019-05-28T02:17:04.165Z,999.24
2019-05-28T02:18:04.161Z,999.24
2019-05-28T02:19:04.157Z,999.20
2019-05-28T02:20:04.134Z,999.20
2019-05-28T02:21:04.123Z,999.18
2019-05-28T02:22:04.115Z,999.24
2019-05-28T02:23:04.098Z,999.17
2019-05-28T02:24:04.096Z,999.22
2019-05-28T02:25:04.077Z,999.17
2019-05-28T02:26:04.075Z,999.16
2019-05-28T02:27:04.061Z,999.19
2019-05-28T02:28:04.048Z,999.23
2019-05-28T02:29:04.033Z,999.21
2019-05-28T02:30:04.045Z,999.26
2019-05-28T02:31:04.011Z,999.25
2019-05-28T02:32:04.006Z,999.24
2019-05-28T02:33:03.994Z,999.27
2019-05-28T02:34:03.982Z,999.24
2019-05-28T02:35:04.834Z,999.25
2019-05-28T02:36:03.970Z,999.20
2019-05-28T02:37:03.944Z,999.25
2019-05-28T02:38:03.937Z,999.22
2019-05-28T02:39:03.925Z,999.26
2019-05-28T02:40:03.914Z,999.27
2019-05-28T02:41:03.913Z,999.29
2019-05-28T02:42:03.894Z,999.23
2019-05-28T02:43:03.878Z,999.27
2019-05-28T02:44:03.874Z,999.27
2019-05-28T02:45:03.855Z,999.31
2019-05-28T02:46:03.862Z,999.22
2019-05-28T02:47:03.842Z,999.28
2019-05-28T02:48:03.828Z,999.29
2019-05-28T02:49:03.831Z,999.23
2019-05-28T02:50:03.811Z,999.28
2019-05-28T02:51:03.795Z,999.22
2019-05-28T02:52:03.810Z,999.23
2019-05-28T02:53:03.768Z,999.28
2019-05-28T02:54:03.756Z,999.23
2019-05-28T02:55:03.751Z,999.25
2019-05-28T02:56:03.740Z,999.27
2019-05-28T02:57:03.751Z,999.30
2019-05-28T02:58:03.728Z,999.30
2019-05-28T02:59:03.712Z,999.25
2019-05-28T03:00:03.696Z,999.30
2019-05-28T03:01:03.683Z,999.27
2019-05-28T03:02:03.674Z,999.30
2019-05-28T03:03:03.699Z,999.25
2019-05-28T03:04:03.650Z,999.30
2019-05-28T03:05:03.636Z,999.27
2019-05-28T03:06:03.624Z,999.23
2019-05-28T03:07:03.622Z,999.29
2019-05-28T03:08:03.603Z,999.33
2019-05-28T03:09:03.604Z,999.29
2019-05-28T03:10:03.581Z,999.31
2019-05-28T03:11:04.529Z,999.26
2019-05-28T03:12:03.564Z,999.25
2019-05-28T03:13:03.547Z,999.28
2019-05-28T03:14:03.551Z,999.28
2019-05-28T03:15:03.533Z,999.30
2019-05-28T03:16:03.515Z,999.35
2019-05-28T03:17:03.513Z,999.26
2019-05-28T03:18:03.501Z,999.24
2019-05-28T03:19:03.486Z,999.23
2019-05-28T03:20:03.490Z,999.28
2019-05-28T03:21:03.470Z,999.24
2019-05-28T03:22:03.453Z,999.26
2019-05-28T03:23:03.439Z,999.23
2019-05-28T03:24:03.427Z,999.28
2019-05-28T03:25:03.428Z,999.24
2019-05-28T03:26:03.419Z,999.26
2019-05-28T03:27:03.398Z,999.26
2019-05-28T03:28:03.392Z,999.25
2019-05-28T03:29:03.372Z,999.29
2019-05-28T03:30:03.386Z,999.31
2019-05-28T03:31:03.358Z,999.30
2019-05-28T03:32:07.678Z,999.31
2019-05-28T03:33:04.331Z,999.25
2019-05-28T03:34:03.321Z,999.30
2019-05-28T03:35:03.319Z,999.30
2019-05-28T03:36:03.335Z,999.34
2019-05-28T03:37:03.305Z,999.30
2019-05-28T03:38:03.271Z,999.26
2019-05-28T03:39:03.260Z,999.25
2019-05-28T03:40:03.248Z,999.28
2019-05-28T03:41:03.261Z,999.29
2019-05-28T03:42:03.257Z,999.26
2019-05-28T03:43:03.220Z,999.27
2019-05-28T03:44:03.204Z,999.28
2019-05-28T03:45:03.197Z,999.25
2019-05-28T03:46:03.303Z,999.26
2019-05-28T03:47:03.176Z,999.22
2019-05-28T03:48:03.173Z,999.17
2019-05-28T03:49:03.151Z,999.19
2019-05-28T03:50:03.146Z,999.21
2019-05-28T03:51:03.135Z,999.21
2019-05-28T03:52:03.132Z,999.19
2019-05-28T03:53:03.107Z,999.27
2019-05-28T03:54:03.098Z,999.23
2019-05-28T03:55:03.089Z,999.25
2019-05-28T03:56:03.203Z,999.19
2019-05-28T03:57:03.062Z,999.22
2019-05-28T03:58:03.079Z,999.19
2019-05-28T03:59:03.051Z,999.17
2019-05-28T04:00:03.033Z,999.19
2019-05-28T04:01:03.026Z,999.20
2019-05-28T04:02:03.019Z,999.22
2019-05-28T04:03:03.005Z,999.14
2019-05-28T04:04:02.992Z,999.14
2019-05-28T04:05:02.978Z,999.16
2019-05-28T04:06:02.970Z,999.23
2019-05-28T04:07:02.951Z,999.19
2019-05-28T04:08:02.995Z,999.18
2019-05-28T04:09:02.930Z,999.22
2019-05-28T04:10:02.937Z,999.21
2019-05-28T04:11:02.926Z,999.21
2019-05-28T04:12:02.905Z,999.23
2019-05-28T04:13:02.899Z,999.22
2019-05-28T04:14:02.885Z,999.25
2019-05-28T04:15:02.870Z,999.22
2019-05-28T04:16:02.863Z,999.19
2019-05-28T04:17:02.841Z,999.17
2019-05-28T04:18:02.882Z,999.18
2019-05-28T04:19:02.831Z,999.20
2019-05-28T04:20:02.817Z,999.20
2019-05-28T04:21:02.805Z,999.25
2019-05-28T04:22:02.793Z,999.24
2019-05-28T04:23:02.781Z,999.20
2019-05-28T04:24:02.792Z,999.26
2019-05-28T04:25:02.770Z,999.21
2019-05-28T04:26:02.754Z,999.28
2019-05-28T04:27:02.740Z,999.31
2019-05-28T04:28:02.728Z,999.24
2019-05-28T04:29:02.721Z,999.22
2019-05-28T04:30:02.716Z,999.25
2019-05-28T04:31:02.692Z,999.24
2019-05-28T04:32:02.688Z,999.17
2019-05-28T04:33:02.678Z,999.19
2019-05-28T04:34:02.684Z,999.21
2019-05-28T04:35:02.652Z,999.20
2019-05-28T04:36:02.637Z,999.23
2019-05-28T04:37:02.634Z,999.16
2019-05-28T04:38:02.627Z,999.18
2019-05-28T04:39:02.613Z,999.16
2019-05-28T04:40:02.610Z,999.26
2019-05-28T04:41:02.585Z,999.20
2019-05-28T04:42:02.581Z,999.15
2019-05-28T04:43:02.623Z,999.18
2019-05-28T04:44:02.552Z,999.18
2019-05-28T04:45:02.567Z,999.17
2019-05-28T04:46:02.538Z,999.21
2019-05-28T04:47:02.522Z,999.24
2019-05-28T04:48:02.514Z,999.24
2019-05-28T04:49:02.504Z,999.25
2019-05-28T04:50:02.494Z,999.20
2019-05-28T04:51:02.489Z,999.25
2019-05-28T04:52:02.472Z,999.19
2019-05-28T04:53:02.471Z,999.23
2019-05-28T04:54:02.453Z,999.20
2019-05-28T04:55:02.444Z,999.19
2019-05-28T04:56:02.438Z,999.17
2019-05-28T04:57:02.418Z,999.17
2019-05-28T04:58:02.403Z,999.18
2019-05-28T04:59:03.968Z,999.20
2019-05-28T05:00:02.388Z,999.18
2019-05-28T05:01:02.387Z,999.17
2019-05-28T05:02:02.389Z,999.23
2019-05-28T05:03:02.360Z,999.25
2019-05-28T05:04:02.336Z,999.17
2019-05-28T05:05:02.334Z,999.22
2019-05-28T05:06:02.324Z,999.23
2019-05-28T05:07:02.316Z,999.23
2019-05-28T05:08:02.294Z,999.23
2019-05-28T05:09:02.278Z,999.19
2019-05-28T05:10:02.287Z,999.17
2019-05-28T05:11:02.261Z,999.30
2019-05-28T05:12:02.286Z,999.28
2019-05-28T05:13:02.242Z,999.26
2019-05-28T05:14:02.221Z,999.31
2019-05-28T05:15:02.530Z,999.25
2019-05-28T05:16:02.207Z,999.29
2019-05-28T05:17:02.200Z,999.31
2019-05-28T05:18:02.189Z,999.30
2019-05-28T05:19:02.174Z,999.26
2019-05-28T05:20:02.157Z,999.30
2019-05-28T05:21:02.176Z,999.24
2019-05-28T05:22:02.139Z,999.26
2019-05-28T05:23:02.139Z,999.26
2019-05-28T05:24:02.109Z,999.28
2019-05-28T05:25:02.218Z,999.29
2019-05-28T05:26:02.095Z,999.24
2019-05-28T05:27:02.082Z,999.29
2019-05-28T05:28:02.113Z,999.31
2019-05-28T05:29:02.065Z,999.29
2019-05-28T05:30:02.082Z,999.25
2019-05-28T05:31:02.054Z,999.29
2019-05-28T05:32:02.023Z,999.21
2019-05-28T05:33:18.586Z,999.23
2019-05-28T05:34:03.018Z,999.24
2019-05-28T05:35:01.991Z,999.29
2019-05-28T05:36:01.984Z,999.25
2019-05-28T05:37:01.970Z,999.25
2019-05-28T05:38:01.965Z,999.31
2019-05-28T05:39:01.961Z,999.27
2019-05-28T05:40:02.015Z,999.36
2019-05-28T05:41:01.923Z,999.30
2019-05-28T05:42:01.918Z,999.33
2019-05-28T05:43:01.903Z,999.31
2019-05-28T05:44:01.899Z,999.34
2019-05-28T05:45:01.884Z,999.35
2019-05-28T05:46:01.881Z,999.34
2019-05-28T05:47:01.866Z,999.39
2019-05-28T05:48:01.846Z,999.28
2019-05-28T05:49:01.838Z,999.31
2019-05-28T05:50:01.855Z,999.32
2019-05-28T05:51:01.978Z,999.31
2019-05-28T05:52:01.807Z,999.38
2019-05-28T05:53:01.831Z,999.37
2019-05-28T05:54:01.790Z,999.32
2019-05-28T05:55:01.785Z,999.31
2019-05-28T05:56:01.802Z,999.41
2019-05-28T05:57:01.752Z,999.34
2019-05-28T05:58:01.745Z,999.35
2019-05-28T05:59:01.735Z,999.28
2019-05-28T06:00:01.724Z,999.37
2019-05-28T06:01:01.704Z,999.41
2019-05-28T06:02:01.713Z,999.42
2019-05-28T06:03:01.690Z,999.35
2019-05-28T06:04:01.686Z,999.42
2019-05-28T06:05:01.667Z,999.44
2019-05-28T06:06:01.651Z,999.48
2019-05-28T06:07:01.657Z,999.43
2019-05-28T06:08:01.644Z,999.44
2019-05-28T06:09:01.639Z,999.45
2019-05-28T06:10:01.674Z,999.42
2019-05-28T06:11:01.595Z,999.44
2019-05-28T06:12:01.609Z,999.41
2019-05-28T06:13:01.583Z,999.42
2019-05-28T06:14:01.562Z,999.43
2019-05-28T06:15:01.653Z,999.41
2019-05-28T06:16:01.541Z,999.42
2019-05-28T06:17:01.530Z,999.45
2019-05-28T06:18:01.543Z,999.45
2019-05-28T06:19:01.536Z,999.49
2019-05-28T06:20:01.500Z,999.45
2019-05-28T06:21:12.058Z,999.47
2019-05-28T06:22:02.478Z,999.44
2019-05-28T06:23:01.469Z,999.46
2019-05-28T06:24:01.489Z,999.46
2019-05-28T06:25:01.443Z,999.45
2019-05-28T06:26:01.437Z,999.37
2019-05-28T06:27:01.418Z,999.50
2019-05-28T06:28:01.418Z,999.44
2019-05-28T06:29:01.428Z,999.49
2019-05-28T06:30:01.389Z,999.48
2019-05-28T06:31:01.387Z,999.44
2019-05-28T06:32:01.401Z,999.43
2019-05-28T06:33:01.362Z,999.47
2019-05-28T06:34:01.381Z,999.45
2019-05-28T06:35:01.333Z,999.44
2019-05-28T06:36:01.325Z,999.50
2019-05-28T06:37:01.316Z,999.46
2019-05-28T06:38:01.301Z,999.43
2019-05-28T06:39:01.291Z,999.42
2019-05-28T06:40:01.321Z,999.43
2019-05-28T06:41:01.276Z,999.41
2019-05-28T06:42:01.262Z,999.42
2019-05-28T06:43:01.244Z,999.40
2019-05-28T06:44:01.232Z,999.44
2019-05-28T06:45:01.241Z,999.48
2019-05-28T06:46:01.215Z,999.46
2019-05-28T06:47:01.237Z,999.43
2019-05-28T06:48:01.196Z,999.38
2019-05-28T06:49:01.176Z,999.43
2019-05-28T06:50:01.183Z,999.38
2019-05-28T06:51:01.163Z,999.35
2019-05-28T06:52:01.169Z,999.39
2019-05-28T06:53:01.138Z,999.43
2019-05-28T06:54:01.122Z,999.43
2019-05-28T06:55:01.111Z,999.43
2019-05-28T06:56:01.134Z,999.43
2019-05-28T06:57:01.102Z,999.47
2019-05-28T06:58:01.099Z,999.48
2019-05-28T06:59:01.076Z,999.48
2019-05-28T07:00:01.060Z,999.47
2019-05-28T07:01:01.127Z,999.52
2019-05-28T07:02:01.038Z,999.54
2019-05-28T07:03:01.029Z,999.58
2019-05-28T07:04:13.467Z,999.53
2019-05-28T07:05:01.999Z,999.48
2019-05-28T07:06:07.027Z,999.56
2019-05-28T07:07:01.986Z,999.62
2019-05-28T07:08:00.990Z,999.55
2019-05-28T07:09:00.956Z,999.59
2019-05-28T07:10:00.944Z,999.55
2019-05-28T07:11:00.955Z,999.56
2019-05-28T07:12:01.014Z,999.61
2019-05-28T07:13:00.920Z,999.59
2019-05-28T07:14:00.905Z,999.58
2019-05-28T07:15:00.893Z,999.63
2019-05-28T07:16:00.881Z,999.62
2019-05-28T07:17:00.872Z,999.61
2019-05-28T07:18:00.873Z,999.67
2019-05-28T07:19:00.847Z,999.66
2019-05-28T07:20:00.840Z,999.65
2019-05-28T07:21:00.841Z,999.65
2019-05-28T07:22:00.825Z,999.66
2019-05-28T07:23:00.821Z,999.63
2019-05-28T07:24:04.973Z,999.63
2019-05-28T07:25:00.780Z,999.63
2019-05-28T07:26:00.774Z,999.66
2019-05-28T07:27:00.766Z,999.65
2019-05-28T07:28:10.780Z,999.58
2019-05-28T07:29:01.758Z,999.63
2019-05-28T07:30:00.731Z,999.63
2019-05-28T07:31:00.723Z,999.63
2019-05-28T07:32:00.711Z,999.66
2019-05-28T07:33:00.730Z,999.66
2019-05-28T07:34:00.693Z,999.69
2019-05-28T07:35:00.677Z,999.69
2019-05-28T07:36:00.663Z,999.69
2019-05-28T07:37:00.655Z,999.65
2019-05-28T07:38:00.640Z,999.66
2019-05-28T07:39:00.642Z,999.69
2019-05-28T07:40:00.615Z,999.67
2019-05-28T07:41:00.612Z,999.75
2019-05-28T07:42:00.598Z,999.77
2019-05-28T07:43:00.592Z,999.71
2019-05-28T07:44:00.597Z,999.77
2019-05-28T07:45:00.561Z,999.77
2019-05-28T07:46:00.555Z,999.83
2019-05-28T07:47:00.548Z,999.80
2019-05-28T07:48:00.529Z,999.77
2019-05-28T07:49:00.532Z,999.77
2019-05-28T07:50:00.512Z,999.83
2019-05-28T07:51:00.497Z,999.81
2019-05-28T07:52:00.492Z,999.79
2019-05-28T07:53:00.509Z,999.78
2019-05-28T07:54:00.509Z,999.80
2019-05-28T07:55:00.464Z,999.85
2019-05-28T07:56:00.498Z,999.75
2019-05-28T07:57:00.452Z,999.83
2019-05-28T07:58:00.426Z,999.77
2019-05-28T07:59:00.423Z,999.82
2019-05-28T08:00:05.078Z,999.93
2019-05-28T08:01:01.385Z,999.81
2019-05-28T08:02:00.407Z,999.90
2019-05-28T08:03:00.365Z,999.82
2019-05-28T08:04:00.356Z,999.82
2019-05-28T08:05:00.358Z,999.73
2019-05-28T08:06:00.336Z,999.77
2019-05-28T08:07:00.347Z,999.81
2019-05-28T08:08:00.313Z,999.82
2019-05-28T08:09:00.334Z,999.81
2019-05-28T08:10:00.319Z,999.83
2019-05-28T08:11:00.333Z,999.86
2019-05-28T08:12:00.277Z,999.86
2019-05-28T08:13:00.253Z,999.87
2019-05-28T08:14:00.243Z,999.86
2019-05-28T08:15:00.231Z,999.88
2019-05-28T08:16:17.683Z,999.87
2019-05-28T08:17:01.227Z,999.83
2019-05-28T08:18:00.201Z,999.88
2019-05-28T08:19:00.213Z,999.83
2019-05-28T08:20:00.197Z,999.82
2019-05-28T08:21:00.183Z,999.84
2019-05-28T08:22:00.176Z,999.82
2019-05-28T08:23:00.149Z,999.76
2019-05-28T08:24:00.179Z,999.75
2019-05-28T08:25:00.230Z,999.78
2019-05-28T08:26:01.945Z,999.76
2019-05-28T08:27:00.118Z,999.80
2019-05-28T08:28:16.427Z,999.78
2019-05-28T08:29:01.077Z,999.84
2019-05-28T08:30:00.067Z,999.81
2019-05-28T08:31:14.800Z,999.79
2019-05-28T08:32:01.065Z,999.83
2019-05-28T08:33:00.046Z,999.80
2019-05-28T08:34:00.036Z,999.79
2019-05-28T08:35:05.306Z,999.81
2019-05-28T08:36:01.015Z,999.81
2019-05-28T08:37:05.784Z,999.84
2019-05-28T08:38:01.010Z,999.83
2019-05-28T08:38:59.970Z,999.84
2019-05-28T08:39:59.973Z,999.82
2019-05-28T08:40:59.959Z,999.88
2019-05-28T08:41:59.937Z,999.93
2019-05-28T08:42:59.995Z,999.86
2019-05-28T08:43:59.954Z,999.87
2019-05-28T08:44:59.906Z,999.95
2019-05-28T08:45:59.898Z,999.92
2019-05-28T08:46:59.887Z,999.94
2019-05-28T08:47:59.871Z,999.90
2019-05-28T08:48:59.866Z,1000.00
2019-05-28T08:49:59.857Z,999.86
2019-05-28T08:50:59.838Z,999.85
2019-05-28T08:51:59.832Z,999.83
2019-05-28T08:52:59.821Z,999.88
2019-05-28T08:53:59.838Z,999.92
2019-05-28T08:54:59.801Z,999.90
2019-05-28T08:55:59.812Z,999.92
2019-05-28T08:56:59.777Z,999.95
2019-05-28T08:58:01.674Z,999.90
2019-05-28T08:58:59.750Z,999.88
2019-05-28T08:59:59.757Z,999.90
2019-05-28T09:00:59.734Z,999.96
2019-05-28T09:01:59.721Z,999.94
2019-05-28T09:02:59.717Z,999.96
2019-05-28T09:03:59.706Z,999.91
2019-05-28T09:04:59.718Z,999.88
2019-05-28T09:05:59.675Z,999.87
2019-05-28T09:06:59.665Z,999.84
2019-05-28T09:07:59.653Z,999.81
2019-05-28T09:08:59.669Z,999.84
2019-05-28T09:09:59.631Z,999.88
2019-05-28T09:10:59.681Z,999.92
2019-05-28T09:11:59.612Z,999.89
2019-05-28T09:12:59.604Z,999.92
2019-05-28T09:13:59.594Z,999.87
2019-05-28T09:14:59.577Z,999.87
2019-05-28T09:15:59.568Z,999.91
2019-05-28T09:16:59.565Z,999.86
2019-05-28T09:17:59.543Z,999.84
2019-05-28T09:18:59.535Z,999.85
2019-05-28T09:19:59.527Z,999.91
2019-05-28T09:20:59.541Z,999.93
2019-05-28T09:21:59.581Z,999.86
2019-05-28T09:22:59.494Z,999.93
2019-05-28T09:23:59.490Z,999.95
2019-05-28T09:24:59.495Z,999.85
2019-05-28T09:25:59.458Z,1000.00
2019-05-28T09:26:59.442Z,999.97
2019-05-28T09:27:59.431Z,1000.04
2019-05-28T09:28:59.439Z,999.98
2019-05-28T09:29:59.415Z,1000.04
2019-05-28T09:30:59.399Z,1000.04
2019-05-28T09:31:59.402Z,1000.05
2019-05-28T09:32:59.416Z,1000.07
2019-05-28T09:33:59.372Z,1000.04
2019-05-28T09:35:02.566Z,999.99
2019-05-28T09:36:08.302Z,1000.07
2019-05-28T09:37:00.342Z,1000.02
2019-05-28T09:37:59.352Z,999.99
2019-05-28T09:38:59.319Z,999.98
2019-05-28T09:39:59.351Z,999.96
2019-05-28T09:40:59.291Z,1000.00
2019-05-28T09:41:59.285Z,999.99
2019-05-28T09:42:59.283Z,1000.01
2019-05-28T09:43:59.310Z,1000.01
2019-05-28T09:44:59.279Z,1000.05
2019-05-28T09:45:59.244Z,1000.07
2019-05-28T09:46:59.235Z,1000.03
2019-05-28T09:47:59.216Z,1000.06
2019-05-28T09:48:59.235Z,1000.06
2019-05-28T09:49:59.202Z,1000.08
2019-05-28T09:50:59.195Z,1000.03
2019-05-28T09:51:59.175Z,1000.06
2019-05-28T09:52:59.175Z,1000.02
2019-05-28T09:53:59.159Z,1000.10
2019-05-28T09:54:59.176Z,1000.09
2019-05-28T09:55:59.140Z,1000.06
2019-05-28T09:56:59.126Z,1000.08
2019-05-28T09:57:59.117Z,1000.05
2019-05-28T09:58:59.104Z,1000.06
2019-05-28T09:59:59.150Z,1000.09
2019-05-28T10:00:59.279Z,1000.12
2019-05-28T10:01:59.101Z,1000.07
2019-05-28T10:02:59.062Z,1000.03
2019-05-28T10:03:59.052Z,1000.02
2019-05-28T10:04:59.043Z,1000.05
2019-05-28T10:06:15.523Z,1000.05
2019-05-28T10:07:00.056Z,1000.02
2019-05-28T10:07:59.025Z,1000.03
2019-05-28T10:08:59.062Z,999.99
2019-05-28T10:09:59.026Z,999.99
2019-05-28T10:10:58.975Z,1000.00
2019-05-28T10:11:58.977Z,1000.00
2019-05-28T10:12:58.951Z,1000.05
2019-05-28T10:13:58.948Z,1000.04
2019-05-28T10:14:58.930Z,1000.07
2019-05-28T10:15:58.929Z,1000.12
2019-05-28T10:16:58.905Z,1000.12
2019-05-28T10:17:58.897Z,1000.08
2019-05-28T10:18:58.883Z,1000.04
2019-05-28T10:19:58.877Z,1000.12
2019-05-28T10:21:14.639Z,1000.18
2019-05-28T10:21:59.857Z,1000.17
2019-05-28T10:22:58.845Z,1000.12
2019-05-28T10:23:58.849Z,1000.07
2019-05-28T10:24:58.826Z,1000.09
2019-05-28T10:25:58.832Z,1000.14
2019-05-28T10:26:58.874Z,1000.18
2019-05-28T10:28:01.435Z,1000.15
2019-05-28T10:28:58.777Z,1000.16
2019-05-28T10:29:58.766Z,1000.11
2019-05-28T10:30:58.772Z,1000.20
2019-05-28T10:31:58.742Z,1000.17
2019-05-28T10:32:58.777Z,1000.19
2019-05-28T10:33:58.718Z,1000.21
2019-05-28T10:35:03.816Z,1000.25
2019-05-28T10:35:59.702Z,1000.28
2019-05-28T10:36:58.712Z,1000.19
2019-05-28T10:37:58.697Z,1000.20
2019-05-28T10:38:58.665Z,1000.20
2019-05-28T10:39:58.649Z,1000.22
2019-05-28T10:40:58.642Z,1000.12
2019-05-28T10:41:58.628Z,1000.18
2019-05-28T10:42:58.661Z,1000.27
2019-05-28T10:43:58.635Z,1000.19
2019-05-28T10:44:58.594Z,1000.18
2019-05-28T10:45:58.599Z,1000.19
2019-05-28T10:46:58.584Z,1000.17
2019-05-28T10:47:58.596Z,1000.13
2019-05-28T10:48:58.564Z,1000.15
2019-05-28T10:49:58.551Z,1000.14
2019-05-28T10:50:58.541Z,1000.16
2019-05-28T10:51:58.518Z,1000.21
2019-05-28T10:52:58.514Z,1000.22
2019-05-28T10:53:58.529Z,1000.20
2019-05-28T10:55:02.448Z,1000.13
2019-05-28T10:55:58.477Z,1000.19
2019-05-28T10:56:58.465Z,1000.23
2019-05-28T10:57:58.464Z,1000.21
2019-05-28T10:58:58.457Z,1000.24
2019-05-28T10:59:58.440Z,1000.25
2019-05-28T11:00:58.424Z,1000.22
2019-05-28T11:01:58.433Z,1000.30
2019-05-28T11:02:58.401Z,1000.20
2019-05-28T11:03:58.431Z,1000.22
2019-05-28T11:04:58.387Z,1000.30
2019-05-28T11:05:58.370Z,1000.28
2019-05-28T11:06:58.366Z,1000.28
2019-05-28T11:07:58.351Z,1000.25
2019-05-28T11:08:58.344Z,1000.26
2019-05-28T11:09:58.338Z,1000.26
2019-05-28T11:10:58.314Z,1000.24
2019-05-28T11:11:58.315Z,1000.15
2019-05-28T11:12:58.295Z,1000.25
2019-05-28T11:13:58.304Z,1000.10
2019-05-28T11:14:58.278Z,1000.13
2019-05-28T11:15:58.260Z,1000.09
2019-05-28T11:16:58.249Z,1000.11
2019-05-28T11:17:58.252Z,1000.15
2019-05-28T11:18:58.237Z,1000.07
2019-05-28T11:19:58.264Z,1000.15
2019-05-28T11:20:58.217Z,1000.10
2019-05-28T11:21:58.196Z,1000.12
2019-05-28T11:22:58.185Z,1000.11
2019-05-28T11:23:58.174Z,1000.16
2019-05-28T11:24:58.169Z,1000.15
2019-05-28T11:25:58.203Z,1000.13
2019-05-28T11:26:58.147Z,1000.09
2019-05-28T11:27:58.138Z,1000.09
2019-05-28T11:28:58.128Z,1000.03
2019-05-28T11:29:58.132Z,1000.01
2019-05-28T11:30:58.100Z,1000.00
2019-05-28T11:31:58.126Z,1000.01
2019-05-28T11:32:58.078Z,1000.01
2019-05-28T11:33:58.074Z,1000.10
2019-05-28T11:34:58.062Z,1000.10
2019-05-28T11:35:58.051Z,1000.12
2019-05-28T11:37:08.835Z,1000.09
2019-05-28T11:37:59.057Z,1000.10
2019-05-28T11:38:58.021Z,1000.09
2019-05-28T11:39:58.012Z,1000.09
2019-05-28T11:40:58.002Z,1000.02
2019-05-28T11:41:58.011Z,1000.00
2019-05-28T11:42:58.013Z,1000.07
2019-05-28T11:43:58.514Z,1000.09
2019-05-28T11:44:58.014Z,1000.05
2019-05-28T11:45:58.005Z,1000.11
2019-05-28T11:46:58.026Z,1000.09
2019-05-28T11:47:58.028Z,1000.14
2019-05-28T11:48:57.960Z,1000.13
2019-05-28T11:49:57.926Z,1000.07
2019-05-28T11:50:57.938Z,1000.10
2019-05-28T11:51:57.908Z,1000.19
2019-05-28T11:52:58.117Z,1000.09
2019-05-28T11:53:57.872Z,1000.12
2019-05-28T11:54:57.852Z,1000.17
2019-05-28T11:55:57.901Z,1000.12
2019-05-28T11:56:57.842Z,1000.08
2019-05-28T11:57:57.869Z,1000.13
2019-05-28T11:58:57.821Z,1000.15
2019-05-28T11:59:57.900Z,1000.09
2019-05-28T12:00:57.851Z,1000.17
2019-05-28T12:01:57.924Z,1000.14
2019-05-28T12:02:57.779Z,1000.16
2019-05-28T12:03:57.819Z,1000.13
2019-05-28T12:04:57.790Z,1000.13
2019-05-28T12:05:57.750Z,1000.21
2019-05-28T12:06:57.728Z,1000.11
2019-05-28T12:07:57.801Z,1000.14
2019-05-28T12:08:57.733Z,1000.16
2019-05-28T12:09:57.716Z,1000.15
2019-05-28T12:10:57.746Z,1000.16
2019-05-28T12:11:57.693Z,1000.14
2019-05-28T12:12:57.722Z,1000.11
2019-05-28T12:13:57.697Z,1000.19
2019-05-28T12:14:57.647Z,1000.20
2019-05-28T12:15:57.648Z,1000.18
2019-05-28T12:16:57.639Z,1000.18
2019-05-28T12:17:57.647Z,1000.17
2019-05-28T12:18:58.394Z,1000.21
2019-05-28T12:19:57.644Z,1000.19
2019-05-28T12:20:57.586Z,1000.19
2019-05-28T12:21:57.569Z,1000.22
2019-05-28T12:23:10.340Z,1000.27